sensor_id;sensor_type;location;lat;lon;timestamp;P1;durP1;ratioP1;P2;durP2;ratioP2
17965;SDS011;9108;53.204;10.424;2023-06-10T00:01:28;12.77;;;4.80;;
17965;SDS011;9108;53.204;10.424;2023-06-10T00:03:56;13.00;;;4.93;;
17965;SDS011;9108;53.204;10.424;2023-06-10T00:06:23;13.60;;;5.03;;
17965;SDS011;9108;53.204;10.424;2023-06-10T00:08:50;12.52;;;4.93;;
17965;SDS011;9108;53.204;10.424;2023-06-10T00:11:18;13.07;;;4.72;;
17965;SDS011;9108;53.204;10.424;2023-06-10T00:13:46;11.65;;;5.07;;
17965;SDS011;9108;53.204;10.424;2023-06-10T00:16:13;12.82;;;5.22;;
17965;SDS011;9108;53.204;10.424;2023-06-10T00:18:42;14.75;;;5.00;;
17965;SDS011;9108;53.204;10.424;2023-06-10T00:21:11;13.30;;;5.57;;
17965;SDS011;9108;53.204;10.424;2023-06-10T00:23:38;11.88;;;5.13;;
17965;SDS011;9108;53.204;10.424;2023-06-10T00:26:06;16.40;;;5.53;;
17965;SDS011;9108;53.204;10.424;2023-06-10T00:28:33;15.23;;;5.60;;
17965;SDS011;9108;53.204;10.424;2023-06-10T00:31:00;15.88;;;5.25;;
17965;SDS011;9108;53.204;10.424;2023-06-10T00:33:29;18.05;;;5.50;;
17965;SDS011;9108;53.204;10.424;2023-06-10T00:35:56;12.75;;;5.35;;
17965;SDS011;9108;53.204;10.424;2023-06-10T00:38:24;15.50;;;5.70;;
17965;SDS011;9108;53.204;10.424;2023-06-10T00:40:52;16.45;;;5.93;;
17965;SDS011;9108;53.204;10.424;2023-06-10T00:43:19;15.27;;;5.63;;
17965;SDS011;9108;53.204;10.424;2023-06-10T00:45:46;14.13;;;5.70;;
17965;SDS011;9108;53.204;10.424;2023-06-10T00:48:13;14.32;;;5.57;;
17965;SDS011;9108;53.204;10.424;2023-06-10T00:50:40;12.82;;;5.18;;
17965;SDS011;9108;53.204;10.424;2023-06-10T00:53:07;13.90;;;5.38;;
17965;SDS011;9108;53.204;10.424;2023-06-10T00:55:37;13.90;;;4.78;;
17965;SDS011;9108;53.204;10.424;2023-06-10T00:58:04;14.43;;;4.80;;
17965;SDS011;9108;53.204;10.424;2023-06-10T01:00:32;15.52;;;5.25;;
17965;SDS011;9108;53.204;10.424;2023-06-10T01:02:59;14.95;;;4.97;;
17965;SDS011;9108;53.204;10.424;2023-06-10T01:05:26;14.30;;;5.00;;
17965;SDS011;9108;53.204;10.424;2023-06-10T01:07:56;10.70;;;4.35;;
17965;SDS011;9108;53.204;10.424;2023-06-10T01:10:28;13.05;;;4.60;;
17965;SDS011;9108;53.204;10.424;2023-06-10T01:12:58;18.10;;;4.60;;
17965;SDS011;9108;53.204;10.424;2023-06-10T01:15:27;15.60;;;4.80;;
17965;SDS011;9108;53.204;10.424;2023-06-10T01:17:56;14.18;;;4.60;;
17965;SDS011;9108;53.204;10.424;2023-06-10T01:20:24;11.70;;;4.40;;
17965;SDS011;9108;53.204;10.424;2023-06-10T01:22:54;12.93;;;4.60;;
17965;SDS011;9108;53.204;10.424;2023-06-10T01:25:23;17.75;;;5.13;;
17965;SDS011;9108;53.204;10.424;2023-06-10T01:27:53;15.60;;;4.70;;
17965;SDS011;9108;53.204;10.424;2023-06-10T01:30:21;10.53;;;4.43;;
17965;SDS011;9108;53.204;10.424;2023-06-10T01:32:51;15.55;;;4.55;;
17965;SDS011;9108;53.204;10.424;2023-06-10T01:35:18;17.75;;;5.03;;
17965;SDS011;9108;53.204;10.424;2023-06-10T01:37:46;13.48;;;4.60;;
17965;SDS011;9108;53.204;10.424;2023-06-10T01:40:16;13.98;;;4.88;;
17965;SDS011;9108;53.204;10.424;2023-06-10T01:42:43;11.35;;;4.50;;
17965;SDS011;9108;53.204;10.424;2023-06-10T01:45:11;14.05;;;4.55;;
17965;SDS011;9108;53.204;10.424;2023-06-10T01:47:38;14.73;;;4.75;;
17965;SDS011;9108;53.204;10.424;2023-06-10T01:50:05;14.10;;;4.60;;
17965;SDS011;9108;53.204;10.424;2023-06-10T01:52:33;14.52;;;4.65;;
17965;SDS011;9108;53.204;10.424;2023-06-10T01:55:00;11.60;;;3.90;;
17965;SDS011;9108;53.204;10.424;2023-06-10T01:57:29;14.90;;;4.20;;
17965;SDS011;9108;53.204;10.424;2023-06-10T01:59:56;13.33;;;4.63;;
17965;SDS011;9108;53.204;10.424;2023-06-10T02:02:23;11.60;;;4.55;;
17965;SDS011;9108;53.204;10.424;2023-06-10T02:04:50;12.88;;;4.20;;
17965;SDS011;9108;53.204;10.424;2023-06-10T02:07:17;10.45;;;4.00;;
17965;SDS011;9108;53.204;10.424;2023-06-10T02:09:44;14.93;;;4.40;;
17965;SDS011;9108;53.204;10.424;2023-06-10T02:12:11;13.23;;;4.10;;
17965;SDS011;9108;53.204;10.424;2023-06-10T02:14:40;11.57;;;4.10;;
17965;SDS011;9108;53.204;10.424;2023-06-10T02:17:07;12.75;;;4.40;;
17965;SDS011;9108;53.204;10.424;2023-06-10T02:19:37;12.27;;;4.53;;
17965;SDS011;9108;53.204;10.424;2023-06-10T02:22:07;13.50;;;4.50;;
17965;SDS011;9108;53.204;10.424;2023-06-10T02:24:35;13.38;;;4.30;;
17965;SDS011;9108;53.204;10.424;2023-06-10T02:27:03;17.02;;;4.30;;
17965;SDS011;9108;53.204;10.424;2023-06-10T02:29:32;14.85;;;4.03;;
17965;SDS011;9108;53.204;10.424;2023-06-10T02:32:01;13.85;;;4.45;;
17965;SDS011;9108;53.204;10.424;2023-06-10T02:34:28;14.27;;;4.28;;
17965;SDS011;9108;53.204;10.424;2023-06-10T02:36:56;13.40;;;4.18;;
17965;SDS011;9108;53.204;10.424;2023-06-10T02:39:23;15.77;;;4.20;;
17965;SDS011;9108;53.204;10.424;2023-06-10T02:41:50;12.83;;;4.17;;
17965;SDS011;9108;53.204;10.424;2023-06-10T02:44:17;13.98;;;4.20;;
17965;SDS011;9108;53.204;10.424;2023-06-10T02:46:45;14.18;;;4.28;;
17965;SDS011;9108;53.204;10.424;2023-06-10T02:49:14;12.87;;;4.10;;
17965;SDS011;9108;53.204;10.424;2023-06-10T02:51:41;10.48;;;3.60;;
17965;SDS011;9108;53.204;10.424;2023-06-10T02:54:08;13.93;;;4.25;;
17965;SDS011;9108;53.204;10.424;2023-06-10T02:56:35;15.88;;;4.38;;
17965;SDS011;9108;53.204;10.424;2023-06-10T02:59:06;15.05;;;4.28;;
17965;SDS011;9108;53.204;10.424;2023-06-10T03:01:33;14.98;;;4.28;;
17965;SDS011;9108;53.204;10.424;2023-06-10T03:04:02;13.82;;;4.05;;
17965;SDS011;9108;53.204;10.424;2023-06-10T03:06:30;14.65;;;4.00;;
17965;SDS011;9108;53.204;10.424;2023-06-10T03:08:59;13.43;;;3.97;;
17965;SDS011;9108;53.204;10.424;2023-06-10T03:11:26;14.32;;;3.80;;
17965;SDS011;9108;53.204;10.424;2023-06-10T03:13:53;13.80;;;4.05;;
17965;SDS011;9108;53.204;10.424;2023-06-10T03:16:20;16.42;;;4.25;;
17965;SDS011;9108;53.204;10.424;2023-06-10T03:18:48;16.40;;;4.13;;
17965;SDS011;9108;53.204;10.424;2023-06-10T03:21:15;12.90;;;3.75;;
17965;SDS011;9108;53.204;10.424;2023-06-10T03:23:44;13.25;;;3.67;;
17965;SDS011;9108;53.204;10.424;2023-06-10T03:26:11;12.50;;;4.05;;
17965;SDS011;9108;53.204;10.424;2023-06-10T03:28:40;15.10;;;4.28;;
17965;SDS011;9108;53.204;10.424;2023-06-10T03:31:07;15.53;;;3.73;;
17965;SDS011;9108;53.204;10.424;2023-06-10T03:33:35;15.77;;;3.70;;
17965;SDS011;9108;53.204;10.424;2023-06-10T03:36:02;13.77;;;3.92;;
17965;SDS011;9108;53.204;10.424;2023-06-10T03:38:30;15.50;;;4.03;;
17965;SDS011;9108;53.204;10.424;2023-06-10T03:40:58;16.92;;;4.47;;
17965;SDS011;9108;53.204;10.424;2023-06-10T03:43:25;15.35;;;4.20;;
17965;SDS011;9108;53.204;10.424;2023-06-10T03:45:52;13.63;;;3.50;;
17965;SDS011;9108;53.204;10.424;2023-06-10T03:48:19;12.45;;;3.83;;
17965;SDS011;9108;53.204;10.424;2023-06-10T03:50:47;12.48;;;3.40;;
17965;SDS011;9108;53.204;10.424;2023-06-10T03:53:15;13.50;;;3.67;;
17965;SDS011;9108;53.204;10.424;2023-06-10T03:55:43;14.98;;;3.70;;
17965;SDS011;9108;53.204;10.424;2023-06-10T03:58:12;11.60;;;3.17;;
17965;SDS011;9108;53.204;10.424;2023-06-10T04:00:39;10.38;;;3.42;;
17965;SDS011;9108;53.204;10.424;2023-06-10T04:03:07;12.95;;;3.88;;
17965;SDS011;9108;53.204;10.424;2023-06-10T04:05:39;14.07;;;3.67;;
17965;SDS011;9108;53.204;10.424;2023-06-10T04:08:06;12.65;;;3.45;;
17965;SDS011;9108;53.204;10.424;2023-06-10T04:10:33;10.00;;;3.40;;
17965;SDS011;9108;53.204;10.424;2023-06-10T04:13:00;15.73;;;3.53;;
17965;SDS011;9108;53.204;10.424;2023-06-10T04:15:29;17.40;;;3.63;;
17965;SDS011;9108;53.204;10.424;2023-06-10T04:17:58;13.20;;;3.30;;
17965;SDS011;9108;53.204;10.424;2023-06-10T04:20:26;15.00;;;3.65;;
17965;SDS011;9108;53.204;10.424;2023-06-10T04:22:53;15.35;;;3.50;;
17965;SDS011;9108;53.204;10.424;2023-06-10T04:25:20;11.77;;;3.75;;
17965;SDS011;9108;53.204;10.424;2023-06-10T04:27:48;12.63;;;3.50;;
17965;SDS011;9108;53.204;10.424;2023-06-10T04:30:15;17.67;;;3.30;;
17965;SDS011;9108;53.204;10.424;2023-06-10T04:32:44;11.40;;;3.08;;
17965;SDS011;9108;53.204;10.424;2023-06-10T04:35:12;10.60;;;2.80;;
17965;SDS011;9108;53.204;10.424;2023-06-10T04:37:39;10.68;;;3.38;;
17965;SDS011;9108;53.204;10.424;2023-06-10T04:40:08;12.88;;;3.40;;
17965;SDS011;9108;53.204;10.424;2023-06-10T04:42:35;12.05;;;3.60;;
17965;SDS011;9108;53.204;10.424;2023-06-10T04:45:05;16.83;;;3.58;;
17965;SDS011;9108;53.204;10.424;2023-06-10T04:47:32;14.10;;;3.22;;
17965;SDS011;9108;53.204;10.424;2023-06-10T04:50:00;13.40;;;3.60;;
17965;SDS011;9108;53.204;10.424;2023-06-10T04:52:28;14.30;;;3.25;;
17965;SDS011;9108;53.204;10.424;2023-06-10T04:54:55;13.57;;;3.58;;
17965;SDS011;9108;53.204;10.424;2023-06-10T04:57:23;14.52;;;3.60;;
17965;SDS011;9108;53.204;10.424;2023-06-10T04:59:51;14.75;;;3.20;;
17965;SDS011;9108;53.204;10.424;2023-06-10T05:02:18;12.57;;;3.40;;
17965;SDS011;9108;53.204;10.424;2023-06-10T05:04:45;16.40;;;3.25;;
17965;SDS011;9108;53.204;10.424;2023-06-10T05:07:13;13.43;;;3.40;;
17965;SDS011;9108;53.204;10.424;2023-06-10T05:09:41;10.55;;;3.50;;
17965;SDS011;9108;53.204;10.424;2023-06-10T05:12:08;11.23;;;3.20;;
17965;SDS011;9108;53.204;10.424;2023-06-10T05:14:35;12.20;;;3.30;;
17965;SDS011;9108;53.204;10.424;2023-06-10T05:17:02;14.68;;;3.42;;
17965;SDS011;9108;53.204;10.424;2023-06-10T05:19:30;16.52;;;3.75;;
17965;SDS011;9108;53.204;10.424;2023-06-10T05:21:57;12.85;;;3.40;;
17965;SDS011;9108;53.204;10.424;2023-06-10T05:24:26;16.58;;;3.30;;
17965;SDS011;9108;53.204;10.424;2023-06-10T05:26:53;14.13;;;3.72;;
17965;SDS011;9108;53.204;10.424;2023-06-10T05:29:20;15.30;;;3.40;;
17965;SDS011;9108;53.204;10.424;2023-06-10T05:31:47;13.67;;;3.20;;
17965;SDS011;9108;53.204;10.424;2023-06-10T05:34:14;12.77;;;3.40;;
17965;SDS011;9108;53.204;10.424;2023-06-10T05:36:42;12.70;;;3.10;;
17965;SDS011;9108;53.204;10.424;2023-06-10T05:39:09;12.45;;;3.25;;
17965;SDS011;9108;53.204;10.424;2023-06-10T05:41:38;12.57;;;3.05;;
17965;SDS011;9108;53.204;10.424;2023-06-10T05:44:05;13.07;;;3.60;;
17965;SDS011;9108;53.204;10.424;2023-06-10T05:46:32;10.27;;;3.00;;
17965;SDS011;9108;53.204;10.424;2023-06-10T05:48:59;10.73;;;3.05;;
17965;SDS011;9108;53.204;10.424;2023-06-10T05:51:26;8.70;;;3.00;;
17965;SDS011;9108;53.204;10.424;2023-06-10T05:53:53;10.70;;;3.40;;
17965;SDS011;9108;53.204;10.424;2023-06-10T05:56:21;9.20;;;2.88;;
17965;SDS011;9108;53.204;10.424;2023-06-10T05:58:49;10.95;;;2.90;;
17965;SDS011;9108;53.204;10.424;2023-06-10T06:01:16;9.35;;;2.97;;
17965;SDS011;9108;53.204;10.424;2023-06-10T06:03:44;10.52;;;2.90;;
17965;SDS011;9108;53.204;10.424;2023-06-10T06:06:11;10.00;;;3.22;;
17965;SDS011;9108;53.204;10.424;2023-06-10T06:08:38;10.82;;;2.85;;
17965;SDS011;9108;53.204;10.424;2023-06-10T06:11:05;10.75;;;2.90;;
17965;SDS011;9108;53.204;10.424;2023-06-10T06:13:32;9.32;;;2.65;;
17965;SDS011;9108;53.204;10.424;2023-06-10T06:16:00;10.07;;;2.63;;
17965;SDS011;9108;53.204;10.424;2023-06-10T06:18:28;9.57;;;2.70;;
17965;SDS011;9108;53.204;10.424;2023-06-10T06:20:55;9.00;;;2.53;;
17965;SDS011;9108;53.204;10.424;2023-06-10T06:23:22;8.88;;;2.72;;
17965;SDS011;9108;53.204;10.424;2023-06-10T06:25:49;10.68;;;2.60;;
17965;SDS011;9108;53.204;10.424;2023-06-10T06:28:16;10.32;;;2.60;;
17965;SDS011;9108;53.204;10.424;2023-06-10T06:30:46;11.55;;;2.80;;
17965;SDS011;9108;53.204;10.424;2023-06-10T06:33:14;9.15;;;2.60;;
17965;SDS011;9108;53.204;10.424;2023-06-10T06:35:41;9.82;;;2.80;;
17965;SDS011;9108;53.204;10.424;2023-06-10T06:38:08;9.55;;;2.55;;
17965;SDS011;9108;53.204;10.424;2023-06-10T06:40:35;11.32;;;2.70;;
17965;SDS011;9108;53.204;10.424;2023-06-10T06:43:03;9.85;;;2.63;;
17965;SDS011;9108;53.204;10.424;2023-06-10T06:45:30;9.10;;;2.70;;
17965;SDS011;9108;53.204;10.424;2023-06-10T06:47:58;10.63;;;2.55;;
17965;SDS011;9108;53.204;10.424;2023-06-10T06:50:27;11.73;;;2.87;;
17965;SDS011;9108;53.204;10.424;2023-06-10T06:52:54;10.50;;;2.67;;
17965;SDS011;9108;53.204;10.424;2023-06-10T06:55:22;8.75;;;2.70;;
17965;SDS011;9108;53.204;10.424;2023-06-10T06:57:49;7.38;;;2.40;;
17965;SDS011;9108;53.204;10.424;2023-06-10T07:00:17;10.10;;;2.90;;
17965;SDS011;9108;53.204;10.424;2023-06-10T07:02:44;10.00;;;2.47;;
17965;SDS011;9108;53.204;10.424;2023-06-10T07:05:11;10.43;;;2.75;;
17965;SDS011;9108;53.204;10.424;2023-06-10T07:07:39;10.00;;;2.83;;
17965;SDS011;9108;53.204;10.424;2023-06-10T07:10:07;10.40;;;2.60;;
17965;SDS011;9108;53.204;10.424;2023-06-10T07:12:34;9.43;;;2.50;;
17965;SDS011;9108;53.204;10.424;2023-06-10T07:15:01;9.38;;;2.80;;
17965;SDS011;9108;53.204;10.424;2023-06-10T07:17:28;9.82;;;2.70;;
17965;SDS011;9108;53.204;10.424;2023-06-10T07:19:55;8.17;;;2.63;;
17965;SDS011;9108;53.204;10.424;2023-06-10T07:22:24;7.70;;;2.50;;
17965;SDS011;9108;53.204;10.424;2023-06-10T07:24:53;10.80;;;2.85;;
17965;SDS011;9108;53.204;10.424;2023-06-10T07:27:20;7.72;;;2.50;;
17965;SDS011;9108;53.204;10.424;2023-06-10T07:29:48;9.23;;;2.70;;
17965;SDS011;9108;53.204;10.424;2023-06-10T07:32:15;9.85;;;2.72;;
17965;SDS011;9108;53.204;10.424;2023-06-10T07:34:42;11.27;;;2.90;;
17965;SDS011;9108;53.204;10.424;2023-06-10T07:37:09;8.45;;;2.58;;
17965;SDS011;9108;53.204;10.424;2023-06-10T07:39:36;8.02;;;2.40;;
17965;SDS011;9108;53.204;10.424;2023-06-10T07:42:05;10.43;;;2.88;;
17965;SDS011;9108;53.204;10.424;2023-06-10T07:44:32;7.15;;;2.63;;
17965;SDS011;9108;53.204;10.424;2023-06-10T07:47:00;8.40;;;2.75;;
17965;SDS011;9108;53.204;10.424;2023-06-10T07:49:27;7.05;;;2.50;;
17965;SDS011;9108;53.204;10.424;2023-06-10T07:51:55;8.13;;;2.58;;
17965;SDS011;9108;53.204;10.424;2023-06-10T07:54:22;8.80;;;2.50;;
17965;SDS011;9108;53.204;10.424;2023-06-10T07:56:49;9.60;;;2.70;;
17965;SDS011;9108;53.204;10.424;2023-06-10T07:59:19;10.35;;;2.85;;
17965;SDS011;9108;53.204;10.424;2023-06-10T08:01:46;7.97;;;2.63;;
17965;SDS011;9108;53.204;10.424;2023-06-10T08:04:13;9.05;;;2.40;;
17965;SDS011;9108;53.204;10.424;2023-06-10T08:06:40;7.95;;;2.60;;
17965;SDS011;9108;53.204;10.424;2023-06-10T08:09:07;8.73;;;2.65;;
17965;SDS011;9108;53.204;10.424;2023-06-10T08:11:35;8.98;;;2.95;;
17965;SDS011;9108;53.204;10.424;2023-06-10T08:14:02;10.02;;;2.80;;
17965;SDS011;9108;53.204;10.424;2023-06-10T08:16:30;9.55;;;2.80;;
17965;SDS011;9108;53.204;10.424;2023-06-10T08:18:58;7.75;;;2.60;;
17965;SDS011;9108;53.204;10.424;2023-06-10T08:21:25;7.90;;;2.65;;
17965;SDS011;9108;53.204;10.424;2023-06-10T08:23:53;9.97;;;2.80;;
17965;SDS011;9108;53.204;10.424;2023-06-10T08:26:20;8.88;;;2.75;;
17965;SDS011;9108;53.204;10.424;2023-06-10T08:28:48;8.52;;;3.10;;
17965;SDS011;9108;53.204;10.424;2023-06-10T08:31:15;8.68;;;2.97;;
17965;SDS011;9108;53.204;10.424;2023-06-10T08:33:43;10.32;;;3.00;;
17965;SDS011;9108;53.204;10.424;2023-06-10T08:36:10;6.55;;;2.80;;
17965;SDS011;9108;53.204;10.424;2023-06-10T08:38:37;10.40;;;2.85;;
17965;SDS011;9108;53.204;10.424;2023-06-10T08:41:05;8.60;;;2.90;;
17965;SDS011;9108;53.204;10.424;2023-06-10T08:43:33;10.47;;;2.80;;
17965;SDS011;9108;53.204;10.424;2023-06-10T08:46:01;8.67;;;3.00;;
17965;SDS011;9108;53.204;10.424;2023-06-10T08:48:29;7.55;;;2.75;;
17965;SDS011;9108;53.204;10.424;2023-06-10T08:50:57;8.30;;;2.70;;
17965;SDS011;9108;53.204;10.424;2023-06-10T08:53:25;6.93;;;2.90;;
17965;SDS011;9108;53.204;10.424;2023-06-10T08:55:53;9.35;;;3.00;;
17965;SDS011;9108;53.204;10.424;2023-06-10T08:58:20;8.18;;;2.85;;
17965;SDS011;9108;53.204;10.424;2023-06-10T09:00:47;10.02;;;2.92;;
17965;SDS011;9108;53.204;10.424;2023-06-10T09:03:14;9.50;;;3.20;;
17965;SDS011;9108;53.204;10.424;2023-06-10T09:05:42;7.97;;;3.15;;
17965;SDS011;9108;53.204;10.424;2023-06-10T09:08:11;8.35;;;3.08;;
17965;SDS011;9108;53.204;10.424;2023-06-10T09:10:38;8.30;;;3.20;;
17965;SDS011;9108;53.204;10.424;2023-06-10T09:13:05;9.50;;;3.22;;
17965;SDS011;9108;53.204;10.424;2023-06-10T09:15:32;7.13;;;2.90;;
17965;SDS011;9108;53.204;10.424;2023-06-10T09:18:00;7.32;;;3.00;;
17965;SDS011;9108;53.204;10.424;2023-06-10T09:20:29;12.88;;;3.08;;
17965;SDS011;9108;53.204;10.424;2023-06-10T09:22:56;9.27;;;3.30;;
17965;SDS011;9108;53.204;10.424;2023-06-10T09:25:35;10.30;;;3.13;;
17965;SDS011;9108;53.204;10.424;2023-06-10T09:28:03;7.90;;;2.90;;
17965;SDS011;9108;53.204;10.424;2023-06-10T09:30:30;7.70;;;2.90;;
17965;SDS011;9108;53.204;10.424;2023-06-10T09:32:58;7.90;;;3.03;;
17965;SDS011;9108;53.204;10.424;2023-06-10T09:35:26;8.43;;;3.25;;
17965;SDS011;9108;53.204;10.424;2023-06-10T09:37:54;8.23;;;3.10;;
17965;SDS011;9108;53.204;10.424;2023-06-10T09:40:21;7.88;;;3.33;;
17965;SDS011;9108;53.204;10.424;2023-06-10T09:42:52;8.68;;;3.00;;
17965;SDS011;9108;53.204;10.424;2023-06-10T09:45:21;12.88;;;3.35;;
17965;SDS011;9108;53.204;10.424;2023-06-10T09:47:51;10.15;;;3.42;;
17965;SDS011;9108;53.204;10.424;2023-06-10T09:50:18;8.98;;;3.00;;
17965;SDS011;9108;53.204;10.424;2023-06-10T09:52:45;10.57;;;3.30;;
17965;SDS011;9108;53.204;10.424;2023-06-10T09:55:12;8.13;;;3.40;;
17965;SDS011;9108;53.204;10.424;2023-06-10T09:57:39;9.15;;;3.28;;
17965;SDS011;9108;53.204;10.424;2023-06-10T10:00:11;7.65;;;3.42;;
17965;SDS011;9108;53.204;10.424;2023-06-10T10:02:45;7.38;;;3.35;;
17965;SDS011;9108;53.204;10.424;2023-06-10T10:05:13;8.30;;;3.40;;
17965;SDS011;9108;53.204;10.424;2023-06-10T10:07:41;10.67;;;3.70;;
17965;SDS011;9108;53.204;10.424;2023-06-10T10:10:18;8.48;;;3.28;;
17965;SDS011;9108;53.204;10.424;2023-06-10T10:12:53;8.70;;;3.65;;
17965;SDS011;9108;53.204;10.424;2023-06-10T10:15:35;7.97;;;3.30;;
17965;SDS011;9108;53.204;10.424;2023-06-10T10:18:06;11.13;;;3.45;;
17965;SDS011;9108;53.204;10.424;2023-06-10T10:20:37;9.63;;;3.40;;
17965;SDS011;9108;53.204;10.424;2023-06-10T10:23:05;9.68;;;3.50;;
17965;SDS011;9108;53.204;10.424;2023-06-10T10:25:38;10.63;;;3.97;;
17965;SDS011;9108;53.204;10.424;2023-06-10T10:28:08;8.43;;;3.50;;
17965;SDS011;9108;53.204;10.424;2023-06-10T10:30:37;9.17;;;3.90;;
17965;SDS011;9108;53.204;10.424;2023-06-10T10:33:06;9.93;;;3.78;;
17965;SDS011;9108;53.204;10.424;2023-06-10T10:35:37;8.77;;;3.40;;
17965;SDS011;9108;53.204;10.424;2023-06-10T10:38:09;7.88;;;3.40;;
17965;SDS011;9108;53.204;10.424;2023-06-10T10:40:36;8.98;;;3.58;;
17965;SDS011;9108;53.204;10.424;2023-06-10T10:43:04;9.52;;;3.92;;
17965;SDS011;9108;53.204;10.424;2023-06-10T10:45:32;10.83;;;4.03;;
17965;SDS011;9108;53.204;10.424;2023-06-10T10:48:04;9.13;;;3.80;;
17965;SDS011;9108;53.204;10.424;2023-06-10T10:50:32;11.73;;;3.80;;
17965;SDS011;9108;53.204;10.424;2023-06-10T10:53:00;8.45;;;3.83;;
17965;SDS011;9108;53.204;10.424;2023-06-10T10:55:27;10.15;;;4.30;;
17965;SDS011;9108;53.204;10.424;2023-06-10T10:57:55;9.50;;;4.03;;
17965;SDS011;9108;53.204;10.424;2023-06-10T11:00:29;11.88;;;4.32;;
17965;SDS011;9108;53.204;10.424;2023-06-10T11:02:59;10.20;;;3.80;;
17965;SDS011;9108;53.204;10.424;2023-06-10T11:05:38;10.52;;;3.95;;
17965;SDS011;9108;53.204;10.424;2023-06-10T11:08:06;8.82;;;3.80;;
17965;SDS011;9108;53.204;10.424;2023-06-10T11:10:33;10.02;;;3.83;;
17965;SDS011;9108;53.204;10.424;2023-06-10T11:13:02;10.57;;;3.92;;
17965;SDS011;9108;53.204;10.424;2023-06-10T11:15:32;10.70;;;3.97;;
17965;SDS011;9108;53.204;10.424;2023-06-10T11:18:06;10.20;;;4.28;;
17965;SDS011;9108;53.204;10.424;2023-06-10T11:20:54;10.35;;;3.70;;
17965;SDS011;9108;53.204;10.424;2023-06-10T11:23:32;11.73;;;4.30;;
17965;SDS011;9108;53.204;10.424;2023-06-10T11:29:04;7.45;;;4.10;;
17965;SDS011;9108;53.204;10.424;2023-06-10T11:31:35;8.40;;;4.32;;
17965;SDS011;9108;53.204;10.424;2023-06-10T11:34:05;8.75;;;4.25;;
17965;SDS011;9108;53.204;10.424;2023-06-10T11:36:34;9.52;;;4.03;;
17965;SDS011;9108;53.204;10.424;2023-06-10T11:39:03;8.95;;;3.95;;
17965;SDS011;9108;53.204;10.424;2023-06-10T11:41:31;9.27;;;4.35;;
17965;SDS011;9108;53.204;10.424;2023-06-10T11:44:00;8.50;;;4.23;;
17965;SDS011;9108;53.204;10.424;2023-06-10T11:46:28;8.23;;;4.25;;
17965;SDS011;9108;53.204;10.424;2023-06-10T11:48:55;8.68;;;4.05;;
17965;SDS011;9108;53.204;10.424;2023-06-10T11:51:25;9.35;;;4.38;;
17965;SDS011;9108;53.204;10.424;2023-06-10T11:53:53;9.05;;;4.07;;
17965;SDS011;9108;53.204;10.424;2023-06-10T11:56:21;9.38;;;4.30;;
17965;SDS011;9108;53.204;10.424;2023-06-10T11:58:52;9.33;;;4.40;;
17965;SDS011;9108;53.204;10.424;2023-06-10T12:01:20;10.52;;;4.10;;
17965;SDS011;9108;53.204;10.424;2023-06-10T12:03:48;9.43;;;4.55;;
17965;SDS011;9108;53.204;10.424;2023-06-10T12:06:15;11.63;;;4.50;;
17965;SDS011;9108;53.204;10.424;2023-06-10T12:08:42;9.63;;;4.35;;
17965;SDS011;9108;53.204;10.424;2023-06-10T12:11:11;9.75;;;4.32;;
17965;SDS011;9108;53.204;10.424;2023-06-10T12:13:38;9.40;;;4.38;;
17965;SDS011;9108;53.204;10.424;2023-06-10T12:16:13;7.53;;;4.20;;
17965;SDS011;9108;53.204;10.424;2023-06-10T12:18:42;9.82;;;4.50;;
17965;SDS011;9108;53.204;10.424;2023-06-10T12:21:16;9.75;;;4.22;;
17965;SDS011;9108;53.204;10.424;2023-06-10T12:24:01;10.57;;;4.32;;
17965;SDS011;9108;53.204;10.424;2023-06-10T12:26:40;7.23;;;4.13;;
17965;SDS011;9108;53.204;10.424;2023-06-10T12:29:20;11.70;;;4.55;;
17965;SDS011;9108;53.204;10.424;2023-06-10T12:31:53;10.65;;;4.18;;
17965;SDS011;9108;53.204;10.424;2023-06-10T12:34:20;9.40;;;4.38;;
17965;SDS011;9108;53.204;10.424;2023-06-10T12:36:54;8.60;;;3.90;;
17965;SDS011;9108;53.204;10.424;2023-06-10T12:39:21;10.05;;;4.60;;
17965;SDS011;9108;53.204;10.424;2023-06-10T12:41:51;11.38;;;4.55;;
17965;SDS011;9108;53.204;10.424;2023-06-10T12:44:18;7.97;;;4.18;;
17965;SDS011;9108;53.204;10.424;2023-06-10T12:46:46;13.52;;;4.47;;
17965;SDS011;9108;53.204;10.424;2023-06-10T12:49:20;9.57;;;4.60;;
17965;SDS011;9108;53.204;10.424;2023-06-10T12:51:47;9.75;;;4.22;;
17965;SDS011;9108;53.204;10.424;2023-06-10T12:54:14;10.52;;;4.53;;
17965;SDS011;9108;53.204;10.424;2023-06-10T12:56:44;11.23;;;4.60;;
17965;SDS011;9108;53.204;10.424;2023-06-10T12:59:14;10.20;;;4.50;;
17965;SDS011;9108;53.204;10.424;2023-06-10T13:01:41;11.02;;;4.70;;
17965;SDS011;9108;53.204;10.424;2023-06-10T13:04:08;10.45;;;4.40;;
17965;SDS011;9108;53.204;10.424;2023-06-10T13:06:35;8.55;;;4.32;;
17965;SDS011;9108;53.204;10.424;2023-06-10T13:09:04;9.73;;;4.38;;
17965;SDS011;9108;53.204;10.424;2023-06-10T13:11:33;12.48;;;4.75;;
17965;SDS011;9108;53.204;10.424;2023-06-10T13:14:01;10.95;;;4.50;;
17965;SDS011;9108;53.204;10.424;2023-06-10T13:16:30;10.25;;;4.55;;
17965;SDS011;9108;53.204;10.424;2023-06-10T13:18:58;10.73;;;4.60;;
17965;SDS011;9108;53.204;10.424;2023-06-10T13:21:25;7.85;;;4.20;;
17965;SDS011;9108;53.204;10.424;2023-06-10T13:23:52;7.57;;;4.40;;
17965;SDS011;9108;53.204;10.424;2023-06-10T13:26:20;8.32;;;4.40;;
17965;SDS011;9108;53.204;10.424;2023-06-10T13:28:47;10.38;;;4.68;;
17965;SDS011;9108;53.204;10.424;2023-06-10T13:31:14;11.07;;;4.45;;
17965;SDS011;9108;53.204;10.424;2023-06-10T13:33:42;8.23;;;4.40;;
17965;SDS011;9108;53.204;10.424;2023-06-10T13:36:09;9.43;;;4.57;;
17965;SDS011;9108;53.204;10.424;2023-06-10T13:38:37;10.52;;;4.43;;
17965;SDS011;9108;53.204;10.424;2023-06-10T13:41:04;9.68;;;4.68;;
17965;SDS011;9108;53.204;10.424;2023-06-10T13:43:31;8.70;;;4.63;;
17965;SDS011;9108;53.204;10.424;2023-06-10T13:45:59;9.10;;;4.60;;
17965;SDS011;9108;53.204;10.424;2023-06-10T13:48:26;11.00;;;4.60;;
17965;SDS011;9108;53.204;10.424;2023-06-10T13:50:55;8.68;;;4.30;;
17965;SDS011;9108;53.204;10.424;2023-06-10T13:53:22;10.13;;;4.40;;
17965;SDS011;9108;53.204;10.424;2023-06-10T13:55:50;9.95;;;4.93;;
17965;SDS011;9108;53.204;10.424;2023-06-10T13:58:17;9.82;;;4.88;;
17965;SDS011;9108;53.204;10.424;2023-06-10T14:00:53;7.75;;;4.30;;
17965;SDS011;9108;53.204;10.424;2023-06-10T14:03:20;8.85;;;4.38;;
17965;SDS011;9108;53.204;10.424;2023-06-10T14:05:47;10.57;;;4.35;;
17965;SDS011;9108;53.204;10.424;2023-06-10T14:08:16;9.27;;;5.03;;
17965;SDS011;9108;53.204;10.424;2023-06-10T14:10:43;8.40;;;4.45;;
17965;SDS011;9108;53.204;10.424;2023-06-10T14:13:10;8.52;;;4.30;;
17965;SDS011;9108;53.204;10.424;2023-06-10T14:15:37;8.70;;;4.53;;
17965;SDS011;9108;53.204;10.424;2023-06-10T14:18:04;10.13;;;5.00;;
17965;SDS011;9108;53.204;10.424;2023-06-10T14:20:32;8.50;;;4.50;;
17965;SDS011;9108;53.204;10.424;2023-06-10T14:22:59;9.15;;;4.70;;
17965;SDS011;9108;53.204;10.424;2023-06-10T14:25:27;11.35;;;4.90;;
17965;SDS011;9108;53.204;10.424;2023-06-10T14:27:54;7.35;;;4.40;;
17965;SDS011;9108;53.204;10.424;2023-06-10T14:30:22;7.90;;;4.55;;
17965;SDS011;9108;53.204;10.424;2023-06-10T14:32:49;8.80;;;4.30;;
17965;SDS011;9108;53.204;10.424;2023-06-10T14:35:17;8.43;;;4.70;;
17965;SDS011;9108;53.204;10.424;2023-06-10T14:37:44;10.35;;;4.70;;
17965;SDS011;9108;53.204;10.424;2023-06-10T14:40:11;7.78;;;4.60;;
17965;SDS011;9108;53.204;10.424;2023-06-10T14:42:39;9.23;;;4.40;;
17965;SDS011;9108;53.204;10.424;2023-06-10T14:45:07;9.52;;;4.60;;
17965;SDS011;9108;53.204;10.424;2023-06-10T14:47:35;8.93;;;4.60;;
17965;SDS011;9108;53.204;10.424;2023-06-10T14:50:02;9.02;;;4.60;;